Weather at Foremost Airport

Public forecast

Using degrees Celsius for public forecast. Weather courtesy of forecast.io.

Closest aviation weather report (METAR) to Foremost Airport

Closest report is Medicine Hat Regional Airport, 44.0 nm (81.4 km) NE. Retrieved 2022/06/29 00:00 UTC (39 minutes ago):

CYXH 290000Z 09017G23KT 30SM FEW160 SCT270 28/11 A2983 RMK AC2CI2 SLP095 DENSITY ALT 4600FT

Closest aviation forecast (TAF) to Foremost Airport

Closest forecast is Medicine Hat Regional Airport, 44.0 nm (81.4 km) NE. Retrieved 2022-06-29 00:00 UTC (39 minutes ago):

TAF TAF CYXH 282357Z 2900/2912 09015G25KT P6SM SCT120 BKN270 BECMG 2902/2904 12008KT FM290400 20008KT P6SM SCT120 TEMPO 2904/2908 VRB20G35KT P6SM VCTS BKN110CB FM290900 23012KT P6SM SKC BECMG 2910/2912 23015G25KT RMK NXT FCST BY 290600Z